WetterOnline ( https://www.wetteronline.at )

Wetter aktuell Helgoland

Aktuelles Wetter: Helgoland/Düne (8m)

6-stündlich | Neueste Meldungen
Ortszeit Temperatur Wetter
Mo, 22.04. 8:00 6.3° C wolkig
Mo, 22.04. 2:00 7.3° C wolkig
So, 21.04. 20:00 8.6° C wolkig
So, 21.04. 14:00 8.1° C leicht bewölkt
So, 21.04. 8:00 6.0° C bedeckt
So, 21.04. 2:00 3.2° C leicht bewölkt
Sa, 20.04. 20:00 6.6° C bedeckt
Sa, 20.04. 14:00 7.5° C bedeckt
Ortszeit Temperatur Wetter
Mo, 22.04. 11:00 5.9° C wolkig
Mo, 22.04. 10:40 5.9° C bedeckt
Mo, 22.04. 10:30 5.9° C bewölkt
Mo, 22.04. 10:20 5.9° C bewölkt
Mo, 22.04. 10:10 5.9° C wolkig
Mo, 22.04. 10:00 5.9° C wolkig
Mo, 22.04. 9:50 5.9° C wolkig
Mo, 22.04. 9:30 6.0° C wolkig
Mo, 22.04. 9:00 6.3° C wolkig
Mo, 22.04. 8:30 6.3° C wolkig
Mo, 22.04. 8:00 6.3° C wolkig
Ortszeit Relative Feuchte Sichtweite
Mo, 22.04. 8:00 54% >70 km
Mo, 22.04. 2:00 57% 55 km
So, 21.04. 20:00 59% 55 km
So, 21.04. 14:00 63% 35 km
So, 21.04. 8:00 83% 45 km
So, 21.04. 2:00 83% 45 km
Sa, 20.04. 20:00 68% 29 km
Sa, 20.04. 14:00 65% 40 km
Ortszeit Relative Feuchte Sichtweite
Mo, 22.04. 11:00 53% 50 km
Mo, 22.04. 10:40 49% -
Mo, 22.04. 10:30 56% >70 km
Mo, 22.04. 10:20 56% -
Mo, 22.04. 10:10 55% -
Mo, 22.04. 10:00 56% 50 km
Mo, 22.04. 9:50 56% -
Mo, 22.04. 9:30 66% >70 km
Mo, 22.04. 9:00 50% 45 km
Mo, 22.04. 8:30 52% 55 km
Mo, 22.04. 8:00 54% >70 km
Ortszeit Niederschlagsmenge Niederschlagsart
Mo, 22.04. 8:00 0.1 l/m2 in 12 Std. -
Mo, 22.04. 2:00 0.1 l/m2 in 6 Std. Regen
So, 21.04. 20:00 0.8 l/m2 in 12 Std. Regen
So, 21.04. 14:00 0.2 l/m2 in 6 Std. Regen
So, 21.04. 8:00 0.2 l/m2 in 12 Std. -
So, 21.04. 2:00 0.2 l/m2 in 6 Std. Regen
Sa, 20.04. 20:00 2 l/m2 in 12 Std. Regen
Sa, 20.04. 14:00 0.1 l/m2 in 6 Std. Regen
Ortszeit Niederschlagsmenge Niederschlagsart
Mo, 22.04. 11:00 0.0 l/m2 in 1 Std. -
Mo, 22.04. 10:40 keine Meldung -
Mo, 22.04. 10:30 0.0 l/m2 in 30 Min -
Mo, 22.04. 10:20 keine Meldung -
Mo, 22.04. 10:10 keine Meldung -
Mo, 22.04. 10:00 0.0 l/m2 in 1 Std. -
Mo, 22.04. 9:50 keine Meldung -
Mo, 22.04. 9:30 0.0 l/m2 in 30 Min -
Mo, 22.04. 9:00 0.0 l/m2 in 1 Std. -
Mo, 22.04. 8:30 0.0 l/m2 in 30 Min -
Mo, 22.04. 8:00 0.0 l/m2 in 1 Std. -
Ortszeit Stärke Spitze Richtung
km/h Bft. km/h Grad Sektor
Mo, 22.04. 8:00 24 4 35 30° NO
Mo, 22.04. 2:00 19 3 44 50° NO
So, 21.04. 20:00 29 5 43 10° N
So, 21.04. 14:00 18 3 36 30° NO
So, 21.04. 8:00 22 4 39 60° NO
So, 21.04. 2:00 0 0 47 - -
Sa, 20.04. 20:00 31 5 46 340° N
Sa, 20.04. 14:00 7 2 29 10° N
Ortszeit Stärke Spitze Richtung
km/h Bft. km/h Grad Sektor
Mo, 22.04. 11:00 25 4 40 30° NO
Mo, 22.04. 10:40 25 4 - 30° NO
Mo, 22.04. 10:30 29 5 40 40° NO
Mo, 22.04. 10:20 29 5 - 40° NO
Mo, 22.04. 10:10 28 4 - 40° NO
Mo, 22.04. 10:00 29 5 40 40° NO
Mo, 22.04. 9:50 29 5 - 40° NO
Mo, 22.04. 9:30 28 4 39 30° NO
Mo, 22.04. 9:00 28 4 44 30° NO
Mo, 22.04. 8:30 28 4 39 20° N
Mo, 22.04. 8:00 24 4 35 30° NO
Ortszeit Untergrenze Bedeckung Gattung
total tief tief mittel hoch
Mo, 22.04. 8:00 1290 m 8/8 1/8 - - -
Mo, 22.04. 2:00 1800 m 8/8 2/8 - - -
So, 21.04. 20:00 1800 m 8/8 8/8 - - -
So, 21.04. 14:00 4800 m 3/8 3/8 - - -
So, 21.04. 8:00 450 m 8/8 8/8 - - -
So, 21.04. 2:00 900 m 2/8 1/8 - - -
Sa, 20.04. 20:00 900 m 8/8 8/8 - - -
Sa, 20.04. 14:00 1500 m 8/8 8/8 - - -
Ortszeit Bedeckungsgrad in Achtel und Wolkenuntergrenze
Mo, 22.04. 11:00 7(4500m) 8(5100m)
Mo, 22.04. 10:40 8
Mo, 22.04. 10:30 2(3900m) 7(5100m) 7(5700m)
Mo, 22.04. 10:20 2(3900m) 7(5100m) 7(5700m)
Mo, 22.04. 10:10 6
Mo, 22.04. 10:00 2(960m) 7(3900m) 8(4500m)
Mo, 22.04. 9:50 2(960m) 7(3900m) 8(4500m)
Mo, 22.04. 9:30 3(960m) 6(3900m) 7(4800m)
Mo, 22.04. 9:00 1(1410m) 3(1800m) 8(3900m)
Mo, 22.04. 8:30 3(1470m) 8(3900m) 8(5400m)
Mo, 22.04. 8:00 1(1290m) 8(3900m)
Ortszeit Luftdruck NN (hPa) Tendenz (hPa in 3 Std.)
Mo, 22.04. 8:00 1026 - 0,1
Mo, 22.04. 2:00 1027 + 0,2
So, 21.04. 20:00 1027 + 0,2
So, 21.04. 14:00 1027 + 0,6
So, 21.04. 8:00 1025 + 2,0
So, 21.04. 2:00 1020 + 1,0
Sa, 20.04. 20:00 1020 - 0,2
Sa, 20.04. 14:00 1020 + 1,2
Ortszeit Luftdruck NN (hPa) Tendenz (hPa in 3 Std.)
Mo, 22.04. 11:00 1026 0,0
Mo, 22.04. 10:40 1026 keine Meldung
Mo, 22.04. 10:30 1027 + 0,1
Mo, 22.04. 10:20 1027 keine Meldung
Mo, 22.04. 10:10 1027 keine Meldung
Mo, 22.04. 10:00 1026 - 0,1
Mo, 22.04. 9:50 1026 keine Meldung
Mo, 22.04. 9:30 1026 - 0,1
Mo, 22.04. 9:00 1026 - 0,2
Mo, 22.04. 8:30 1026 - 0,4
Mo, 22.04. 8:00 1026 - 0,1
Ortszeit Schneehöhe (cm)
Mo, 22.04. 8:00 0
Mo, 22.04. 2:00 0
So, 21.04. 20:00 0
So, 21.04. 14:00 0
So, 21.04. 8:00 0
So, 21.04. 2:00 0
Sa, 20.04. 20:00 0
Sa, 20.04. 14:00 0
Ortszeit Schneehöhe (cm)
Mo, 22.04. 11:00 0
Mo, 22.04. 10:40 -
Mo, 22.04. 10:30 0
Mo, 22.04. 10:20 0
Mo, 22.04. 10:10 -
Mo, 22.04. 10:00 0
Mo, 22.04. 9:50 0
Mo, 22.04. 9:30 0
Mo, 22.04. 9:00 0
Mo, 22.04. 8:30 0
Mo, 22.04. 8:00 0
Link zu dieser Seite / Seite empfehlen

Das Wetter in ...